createdAt,value
2018-05-10T00:00:26.382Z,10.30
2018-05-10T00:02:54.030Z,10.30
2018-05-10T00:05:21.695Z,10.40
2018-05-10T00:07:49.322Z,10.40
2018-05-10T00:10:17.762Z,10.60
2018-05-10T00:12:45.405Z,10.60
2018-05-10T00:15:13.003Z,10.60
2018-05-10T00:17:40.649Z,10.70
2018-05-10T00:20:09.046Z,11.00
2018-05-10T00:22:36.694Z,11.00
2018-05-10T00:25:04.343Z,11.00
2018-05-10T00:27:32.712Z,11.40
2018-05-10T00:30:00.320Z,11.40
2018-05-10T00:32:27.930Z,11.70
2018-05-10T00:34:55.606Z,11.80
2018-05-10T00:37:23.219Z,12.00
2018-05-10T00:39:50.827Z,12.10
2018-05-10T00:42:18.516Z,12.10
2018-05-10T00:44:46.353Z,12.10
2018-05-10T00:47:14.754Z,12.00
2018-05-10T00:49:42.362Z,12.00
2018-05-10T00:52:10.766Z,11.90
2018-05-10T00:54:50.309Z,11.80
2018-05-10T00:57:17.911Z,11.80
2018-05-10T00:59:45.568Z,11.70
2018-05-10T01:04:47.147Z,11.70
2018-05-10T01:07:14.753Z,11.70
2018-05-10T01:09:42.351Z,11.60
2018-05-10T01:12:09.988Z,11.50
2018-05-10T01:14:37.624Z,11.40
2018-05-10T01:17:05.251Z,11.30
2018-05-10T01:19:33.042Z,11.30
2018-05-10T01:22:00.659Z,11.20
2018-05-10T01:24:28.301Z,11.20
2018-05-10T01:26:55.915Z,11.30
2018-05-10T01:29:24.270Z,11.40
2018-05-10T01:31:51.866Z,11.30
2018-05-10T01:34:19.507Z,11.40
2018-05-10T01:36:47.875Z,11.40
2018-05-10T01:39:15.501Z,11.40
2018-05-10T01:41:43.159Z,11.40
2018-05-10T01:44:10.812Z,11.30
2018-05-10T01:46:38.498Z,11.20
2018-05-10T01:49:06.937Z,11.00
2018-05-10T01:51:34.538Z,11.00
2018-05-10T01:54:02.129Z,10.90
2018-05-10T01:56:29.733Z,10.90
2018-05-10T01:58:57.331Z,10.80
2018-05-10T02:01:24.936Z,10.90
2018-05-10T02:03:52.641Z,10.90
2018-05-10T02:06:20.254Z,10.90
2018-05-10T02:08:47.877Z,10.90
2018-05-10T02:11:15.574Z,10.80
2018-05-10T02:13:43.962Z,10.50
2018-05-10T02:16:11.562Z,10.50
2018-05-10T02:18:39.174Z,10.40
2018-05-10T02:21:06.775Z,10.40
2018-05-10T02:23:34.438Z,10.30
2018-05-10T02:26:02.093Z,10.40
2018-05-10T02:28:29.696Z,10.50
2018-05-10T02:30:58.060Z,10.40
2018-05-10T02:33:25.678Z,10.40
2018-05-10T02:35:53.284Z,10.40
2018-05-10T02:38:20.874Z,10.20
2018-05-10T02:40:49.299Z,10.00
2018-05-10T02:43:16.894Z,10.00
2018-05-10T02:45:45.263Z,9.80
2018-05-10T02:48:12.867Z,9.80
2018-05-10T02:50:40.459Z,9.90
2018-05-10T02:53:08.067Z,10.00
2018-05-10T02:55:35.674Z,10.00
2018-05-10T02:58:03.281Z,10.10
2018-05-10T03:00:30.878Z,10.10
2018-05-10T03:02:58.506Z,10.30
2018-05-10T03:05:26.910Z,10.70
2018-05-10T03:07:54.510Z,10.70
2018-05-10T03:10:22.125Z,10.80
2018-05-10T03:12:49.722Z,10.80
2018-05-10T03:15:17.324Z,10.70
2018-05-10T03:17:45.699Z,10.60
2018-05-10T03:20:13.351Z,10.60
2018-05-10T03:22:41.738Z,10.60
2018-05-10T03:25:10.110Z,10.50
2018-05-10T03:27:38.563Z,10.50
2018-05-10T03:30:06.183Z,10.50
2018-05-10T03:32:33.846Z,10.60
2018-05-10T03:35:01.483Z,10.60
2018-05-10T03:37:29.870Z,10.50
2018-05-10T03:39:57.484Z,10.50
2018-05-10T03:42:25.084Z,10.70
2018-05-10T03:44:53.450Z,11.00
2018-05-10T03:47:21.854Z,11.00
2018-05-10T03:49:49.502Z,11.00
2018-05-10T03:52:17.102Z,11.10
2018-05-10T03:54:44.762Z,11.20
2018-05-10T03:57:12.370Z,11.30
2018-05-10T03:59:40.799Z,11.40
2018-05-10T04:02:08.463Z,11.40
2018-05-10T04:05:00.611Z,11.50
2018-05-10T04:07:39.923Z,11.60
2018-05-10T04:10:19.398Z,11.80
2018-05-10T04:12:47.006Z,11.80
2018-05-10T04:15:15.153Z,11.90
2018-05-10T04:17:43.646Z,12.00
2018-05-10T04:20:12.038Z,12.00
2018-05-10T04:22:39.695Z,12.00
2018-05-10T04:25:08.051Z,12.20
2018-05-10T04:27:35.686Z,12.10
2018-05-10T04:30:03.309Z,12.20
2018-05-10T04:32:30.922Z,12.20
2018-05-10T04:34:58.629Z,12.30
2018-05-10T04:37:26.234Z,12.40
2018-05-10T04:39:53.827Z,12.40
2018-05-10T04:42:22.251Z,12.60
2018-05-10T04:44:49.823Z,12.50
2018-05-10T04:47:17.422Z,12.60
2018-05-10T04:49:45.874Z,12.70
2018-05-10T04:52:13.478Z,12.70
2018-05-10T04:54:41.159Z,12.80
2018-05-10T04:57:08.730Z,13.00
2018-05-10T04:59:36.327Z,13.00
2018-05-10T05:02:04.759Z,13.20
2018-05-10T05:04:32.362Z,13.10
2018-05-10T05:06:59.979Z,13.20
2018-05-10T05:09:27.638Z,13.30
2018-05-10T05:11:55.281Z,13.20
2018-05-10T05:14:22.891Z,13.10
2018-05-10T05:16:50.488Z,13.10
2018-05-10T05:19:18.854Z,13.40
2018-05-10T05:21:47.310Z,13.40
2018-05-10T05:24:14.969Z,13.40
2018-05-10T05:26:42.678Z,13.50
2018-05-10T05:29:10.382Z,13.60
2018-05-10T05:31:38.018Z,13.70
2018-05-10T05:34:05.627Z,13.80
2018-05-10T05:36:34.053Z,13.90
2018-05-10T05:39:01.699Z,13.90
2018-05-10T05:41:29.565Z,13.90
2018-05-10T05:43:57.265Z,14.10
2018-05-10T05:46:24.861Z,14.10
2018-05-10T05:48:52.485Z,14.10
2018-05-10T05:51:20.151Z,14.20
2018-05-10T05:53:47.771Z,14.20
2018-05-10T05:56:15.406Z,14.20
2018-05-10T05:58:43.028Z,14.20
2018-05-10T06:01:10.630Z,14.20
2018-05-10T06:03:39.097Z,14.20
2018-05-10T06:06:06.724Z,14.20
2018-05-10T06:08:34.320Z,14.30
2018-05-10T06:11:01.952Z,14.40
2018-05-10T06:13:29.546Z,14.50
2018-05-10T06:15:57.180Z,14.60
2018-05-10T06:18:24.816Z,14.80
2018-05-10T06:20:53.205Z,15.20
2018-05-10T06:23:20.814Z,15.20
2018-05-10T06:25:48.463Z,15.30
2018-05-10T06:28:16.075Z,15.40
2018-05-10T06:30:43.671Z,15.70
2018-05-10T06:33:11.294Z,15.90
2018-05-10T06:35:38.887Z,16.10
2018-05-10T06:38:07.307Z,16.30
2018-05-10T06:40:34.942Z,16.20
2018-05-10T06:43:02.542Z,16.40
2018-05-10T06:45:30.156Z,16.50
2018-05-10T06:47:57.844Z,16.60
2018-05-10T06:50:26.210Z,16.80
2018-05-10T06:52:53.816Z,16.80
2018-05-10T06:55:21.426Z,16.80
2018-05-10T06:57:49.026Z,16.80
2018-05-10T07:00:16.647Z,16.80
2018-05-10T07:02:44.263Z,16.90
2018-05-10T07:05:11.870Z,17.00
2018-05-10T07:07:39.476Z,17.00
2018-05-10T07:10:07.102Z,16.90
2018-05-10T07:12:34.711Z,17.00
2018-05-10T07:15:02.334Z,17.30
2018-05-10T07:17:29.962Z,17.60
2018-05-10T07:19:57.561Z,17.90
2018-05-10T07:22:25.161Z,18.00
2018-05-10T07:24:52.786Z,18.30
2018-05-10T07:27:20.463Z,18.40
2018-05-10T07:29:48.033Z,18.50
2018-05-10T07:32:15.638Z,18.40
2018-05-10T07:34:43.233Z,18.40
2018-05-10T07:37:10.826Z,18.50
2018-05-10T07:39:38.433Z,18.60
2018-05-10T07:42:06.896Z,19.10
2018-05-10T07:44:34.429Z,19.10
2018-05-10T07:47:02.029Z,19.40
2018-05-10T07:49:30.393Z,19.90
2018-05-10T07:51:57.982Z,19.90
2018-05-10T07:54:25.595Z,20.00
2018-05-10T07:56:53.197Z,20.10
2018-05-10T07:59:21.558Z,20.30
2018-05-10T08:01:49.960Z,20.40
2018-05-10T08:04:17.558Z,20.40
2018-05-10T08:06:45.162Z,20.60
2018-05-10T08:09:13.542Z,20.70
2018-05-10T08:11:41.906Z,20.80
2018-05-10T08:14:09.502Z,20.70
2018-05-10T08:16:37.110Z,21.00
2018-05-10T08:19:04.707Z,21.20
2018-05-10T08:21:33.070Z,21.40
2018-05-10T08:24:00.754Z,21.30
2018-05-10T08:26:29.119Z,21.50
2018-05-10T08:28:56.742Z,21.50
2018-05-10T08:31:24.362Z,21.70
2018-05-10T08:33:51.967Z,21.70
2018-05-10T08:36:19.562Z,21.90
2018-05-10T08:38:47.947Z,22.10
2018-05-10T08:41:15.563Z,22.10
2018-05-10T08:43:43.176Z,22.20
2018-05-10T08:46:10.778Z,22.20
2018-05-10T08:48:38.381Z,22.30
2018-05-10T08:51:05.985Z,22.40
2018-05-10T08:53:33.601Z,22.50
2018-05-10T08:56:01.963Z,22.60
2018-05-10T08:58:29.567Z,22.60
2018-05-10T09:00:57.240Z,22.70
2018-05-10T09:03:24.840Z,22.80
2018-05-10T09:05:52.454Z,22.80
2018-05-10T09:08:20.839Z,23.10
2018-05-10T09:10:48.437Z,23.00
2018-05-10T09:13:16.064Z,23.20
2018-05-10T09:15:44.455Z,23.40
2018-05-10T09:18:12.062Z,23.30
2018-05-10T09:20:39.703Z,23.50
2018-05-10T09:23:07.322Z,23.60
2018-05-10T09:25:34.926Z,23.70
2018-05-10T09:28:02.532Z,23.80
2018-05-10T09:30:30.142Z,23.70
2018-05-10T09:32:57.743Z,23.80
2018-05-10T09:35:25.339Z,23.70
2018-05-10T09:37:53.743Z,23.60
2018-05-10T09:40:21.367Z,23.60
2018-05-10T09:42:48.970Z,23.80
2018-05-10T09:45:17.352Z,24.00
2018-05-10T09:47:45.710Z,24.00
2018-05-10T09:50:14.710Z,24.00
2018-05-10T09:52:42.450Z,24.00
2018-05-10T09:55:12.216Z,23.80
2018-05-10T09:57:39.934Z,23.80
2018-05-10T10:00:07.558Z,23.80
2018-05-10T10:02:35.154Z,23.90
2018-05-10T10:05:02.752Z,24.00
2018-05-10T10:07:31.127Z,24.20
2018-05-10T10:09:59.607Z,24.20
2018-05-10T10:12:27.967Z,24.20
2018-05-10T10:14:55.578Z,24.20
2018-05-10T10:17:23.181Z,24.20
2018-05-10T10:19:50.803Z,24.30
2018-05-10T10:22:18.410Z,24.40
2018-05-10T10:24:46.010Z,24.50
2018-05-10T10:27:13.610Z,24.80
2018-05-10T10:29:41.251Z,24.90
2018-05-10T10:32:08.878Z,25.20
2018-05-10T10:34:36.514Z,25.40
2018-05-10T10:37:04.131Z,25.50
2018-05-10T10:39:31.770Z,25.60
2018-05-10T10:41:59.372Z,25.80
2018-05-10T10:44:26.978Z,25.90
2018-05-10T10:46:54.578Z,26.00
2018-05-10T10:49:22.183Z,26.00
2018-05-10T10:51:50.550Z,26.10
2018-05-10T10:54:18.182Z,26.00
2018-05-10T10:56:45.817Z,26.20
2018-05-10T10:59:14.219Z,26.40
2018-05-10T11:01:41.822Z,26.40
2018-05-10T11:04:09.422Z,26.40
2018-05-10T11:06:37.036Z,26.30
2018-05-10T11:09:05.431Z,26.50
2018-05-10T11:11:33.052Z,26.50
2018-05-10T11:14:00.670Z,26.40
2018-05-10T11:16:28.291Z,26.50
2018-05-10T11:18:55.892Z,26.40
2018-05-10T11:21:23.503Z,26.80
2018-05-10T11:23:51.896Z,27.30
2018-05-10T11:26:20.269Z,27.50
2018-05-10T11:28:47.918Z,27.40
2018-05-10T11:31:15.554Z,27.30
2018-05-10T11:33:43.202Z,27.10
2018-05-10T11:36:10.811Z,26.90
2018-05-10T11:38:38.442Z,26.80
2018-05-10T11:41:06.170Z,27.20
2018-05-10T11:43:33.779Z,27.30
2018-05-10T11:46:01.375Z,27.60
2018-05-10T11:48:28.970Z,27.60
2018-05-10T11:50:56.583Z,28.10
2018-05-10T11:53:24.230Z,28.00
2018-05-10T11:55:51.852Z,27.90
2018-05-10T11:58:20.232Z,27.90
2018-05-10T12:00:47.826Z,27.90
2018-05-10T12:03:15.427Z,28.00
2018-05-10T12:05:43.039Z,28.30
2018-05-10T12:08:10.646Z,28.20
2018-05-10T12:10:38.238Z,28.30
2018-05-10T12:13:05.878Z,28.10
2018-05-10T12:15:34.386Z,28.30
2018-05-10T12:18:01.982Z,28.40
2018-05-10T12:20:29.655Z,28.50
2018-05-10T12:22:58.015Z,28.10
2018-05-10T12:25:25.649Z,28.10
2018-05-10T12:27:53.283Z,27.90
2018-05-10T12:30:20.971Z,29.00
2018-05-10T12:32:48.546Z,29.40
2018-05-10T12:35:16.214Z,29.50
2018-05-10T12:37:43.818Z,29.60
2018-05-10T12:40:11.427Z,30.10
2018-05-10T12:42:39.038Z,30.70
2018-05-10T12:45:06.649Z,31.40
2018-05-10T12:47:34.254Z,31.80
2018-05-10T12:50:01.859Z,32.00
2018-05-10T12:52:29.454Z,32.50
2018-05-10T12:54:57.052Z,32.70
2018-05-10T12:57:24.665Z,33.80
2018-05-10T12:59:52.294Z,34.00
2018-05-10T13:02:19.927Z,34.10
2018-05-10T13:04:47.558Z,34.40
2018-05-10T13:07:15.180Z,34.60
2018-05-10T13:09:42.774Z,35.00
2018-05-10T13:12:11.166Z,35.80
2018-05-10T13:14:39.551Z,36.20
2018-05-10T13:17:07.150Z,36.10
2018-05-10T13:19:34.803Z,36.40
2018-05-10T13:22:02.416Z,35.90
2018-05-10T13:24:30.771Z,36.20
2018-05-10T13:26:58.379Z,36.20
2018-05-10T13:29:25.987Z,35.90
2018-05-10T13:31:53.583Z,36.00
2018-05-10T13:34:22.003Z,36.50
2018-05-10T13:36:49.608Z,36.50
2018-05-10T13:39:17.966Z,36.30
2018-05-10T13:41:45.582Z,36.30
2018-05-10T13:44:13.224Z,36.60
2018-05-10T13:46:41.582Z,36.70
2018-05-10T13:49:09.999Z,36.60
2018-05-10T13:51:37.597Z,36.50
2018-05-10T13:54:05.218Z,36.80
2018-05-10T13:56:32.827Z,36.70
2018-05-10T13:59:00.439Z,37.00
2018-05-10T14:01:28.051Z,36.70
2018-05-10T14:03:55.658Z,35.40
2018-05-10T14:06:23.264Z,35.40
2018-05-10T14:08:50.906Z,35.70
2018-05-10T14:11:18.535Z,35.90
2018-05-10T14:13:46.138Z,35.20
2018-05-10T14:16:13.779Z,35.30
2018-05-10T14:18:41.391Z,34.70
2018-05-10T14:21:09.002Z,35.10
2018-05-10T14:23:36.607Z,34.10
2018-05-10T14:26:04.231Z,33.50
2018-05-10T14:28:31.826Z,33.50
2018-05-10T14:30:59.418Z,33.50
2018-05-10T14:33:27.029Z,32.80
2018-05-10T14:35:54.622Z,32.30
2018-05-10T14:38:22.218Z,32.70
2018-05-10T14:40:49.856Z,32.90
2018-05-10T14:43:17.456Z,32.60
2018-05-10T14:45:45.086Z,32.20
2018-05-10T14:48:12.695Z,32.00
2018-05-10T14:50:40.298Z,31.60
2018-05-10T14:53:07.894Z,32.30
2018-05-10T14:55:35.514Z,32.50
2018-05-10T14:58:03.109Z,32.40
2018-05-10T15:00:30.705Z,32.30
2018-05-10T15:02:58.328Z,32.10
2018-05-10T15:05:25.923Z,32.60
2018-05-10T15:07:53.529Z,32.90
2018-05-10T15:10:21.154Z,33.20
2018-05-10T15:12:48.768Z,34.10
2018-05-10T15:15:16.436Z,34.50
2018-05-10T15:17:44.039Z,35.60
2018-05-10T15:20:11.638Z,36.30
2018-05-10T15:22:39.230Z,36.80
2018-05-10T15:25:06.838Z,36.40
2018-05-10T15:27:35.199Z,38.20
2018-05-10T15:30:02.825Z,38.20
2018-05-10T15:32:30.440Z,39.20
2018-05-10T15:34:58.064Z,38.40
2018-05-10T15:37:25.674Z,37.10
2018-05-10T15:39:53.291Z,36.60
2018-05-10T15:42:20.894Z,35.30
2018-05-10T15:44:48.488Z,35.10
2018-05-10T15:47:16.101Z,34.60
2018-05-10T15:49:43.779Z,32.40
2018-05-10T15:52:11.327Z,31.30
2018-05-10T15:54:38.935Z,30.00
2018-05-10T15:57:06.554Z,29.10
2018-05-10T15:59:34.185Z,28.20
2018-05-10T16:02:02.554Z,26.70
2018-05-10T16:04:30.158Z,26.70
2018-05-10T16:06:57.757Z,26.10
2018-05-10T16:09:25.377Z,25.80
2018-05-10T16:11:52.983Z,25.60
2018-05-10T16:14:21.350Z,24.90
2018-05-10T16:16:48.962Z,24.90
2018-05-10T16:19:16.613Z,24.60
2018-05-10T16:21:44.974Z,23.90
2018-05-10T16:24:13.350Z,23.70
2018-05-10T16:26:40.950Z,23.70
2018-05-10T16:29:09.313Z,23.30
2018-05-10T16:31:36.934Z,23.20
2018-05-10T16:34:04.542Z,23.20
2018-05-10T16:36:32.144Z,23.10
2018-05-10T16:38:59.779Z,23.00
2018-05-10T16:41:27.381Z,23.00
2018-05-10T16:43:54.978Z,22.80
2018-05-10T16:46:22.594Z,22.70
2018-05-10T16:48:50.190Z,22.50
2018-05-10T16:51:17.794Z,22.40
2018-05-10T16:53:45.412Z,22.20
2018-05-10T16:56:13.776Z,21.80
2018-05-10T16:58:41.377Z,21.80
2018-05-10T17:01:08.978Z,21.50
2018-05-10T17:03:38.081Z,21.20
2018-05-10T17:06:05.687Z,21.20
2018-05-10T17:08:33.310Z,21.10
2018-05-10T17:11:01.703Z,20.80
2018-05-10T17:13:30.062Z,20.70
2018-05-10T17:15:58.439Z,20.60
2018-05-10T17:18:26.830Z,20.50
2018-05-10T17:20:54.442Z,20.50
2018-05-10T17:23:22.130Z,20.50
2018-05-10T17:25:49.727Z,20.40
2018-05-10T17:28:17.339Z,20.40
2018-05-10T17:30:44.950Z,20.30
2018-05-10T17:33:12.583Z,20.20
2018-05-10T17:35:40.226Z,20.10
2018-05-10T17:38:07.867Z,20.00
2018-05-10T17:40:35.506Z,19.90
2018-05-10T17:43:03.105Z,19.80
2018-05-10T17:45:30.710Z,19.70
2018-05-10T17:47:58.323Z,19.70
2018-05-10T17:50:25.938Z,19.60
2018-05-10T17:52:54.652Z,19.70
2018-05-10T17:55:22.310Z,19.60
2018-05-10T17:57:49.897Z,19.70
2018-05-10T18:00:17.510Z,19.80
2018-05-10T18:02:45.108Z,19.80
2018-05-10T18:05:12.703Z,19.80
2018-05-10T18:07:40.316Z,19.80
2018-05-10T18:10:07.902Z,19.80
2018-05-10T18:12:35.502Z,19.70
2018-05-10T18:15:03.115Z,19.60
2018-05-10T18:17:30.715Z,19.50
2018-05-10T18:19:58.318Z,19.40
2018-05-10T18:22:25.936Z,19.30
2018-05-10T18:24:53.575Z,19.20
2018-05-10T18:27:21.942Z,19.10
2018-05-10T18:29:49.549Z,19.10
2018-05-10T18:32:17.154Z,19.10
2018-05-10T18:34:44.763Z,19.00
2018-05-10T18:37:12.374Z,18.90
2018-05-10T18:39:39.966Z,18.70
2018-05-10T18:42:08.350Z,18.50
2018-05-10T18:44:36.726Z,18.50
2018-05-10T18:47:05.085Z,18.50
2018-05-10T18:49:33.459Z,18.50
2018-05-10T18:52:01.131Z,18.40
2018-05-10T18:54:29.498Z,18.40
2018-05-10T18:56:57.122Z,18.30
2018-05-10T18:59:24.739Z,18.30
2018-05-10T19:01:53.106Z,18.20
2018-05-10T19:04:21.468Z,18.20
2018-05-10T19:06:49.883Z,18.20
2018-05-10T19:09:17.478Z,18.10
2018-05-10T19:11:45.081Z,18.30
2018-05-10T19:14:13.488Z,18.40
2018-05-10T19:16:41.126Z,18.40
2018-05-10T19:19:08.725Z,18.30
2018-05-10T19:21:36.328Z,18.40
2018-05-10T19:24:03.950Z,18.30
2018-05-10T19:26:31.566Z,18.30
2018-05-10T19:28:59.215Z,18.30
2018-05-10T19:31:26.814Z,18.20
2018-05-10T19:33:55.191Z,18.10
2018-05-10T19:36:22.805Z,18.10
2018-05-10T19:38:50.447Z,18.10
2018-05-10T19:41:18.080Z,18.00
2018-05-10T19:43:46.455Z,18.00
2018-05-10T19:46:14.050Z,18.00
2018-05-10T19:48:41.650Z,18.00
2018-05-10T19:51:10.116Z,18.10
2018-05-10T19:53:37.710Z,18.00
2018-05-10T19:56:05.307Z,18.10
2018-05-10T19:58:32.979Z,18.00
2018-05-10T20:01:00.542Z,18.00
2018-05-10T20:03:28.146Z,17.90
2018-05-10T20:05:55.762Z,17.90
2018-05-10T20:08:23.373Z,17.90
2018-05-10T20:10:50.975Z,17.80
2018-05-10T20:13:18.582Z,17.90
2018-05-10T20:15:46.177Z,17.80
2018-05-10T20:18:13.786Z,17.80
2018-05-10T20:20:42.166Z,17.60
2018-05-10T20:23:10.534Z,17.70
2018-05-10T20:25:38.134Z,17.70
2018-05-10T20:28:05.738Z,17.70
2018-05-10T20:30:33.374Z,17.80
2018-05-10T20:33:01.022Z,17.70
2018-05-10T20:35:28.617Z,17.80
2018-05-10T20:37:56.226Z,17.80
2018-05-10T20:40:23.823Z,17.80
2018-05-10T20:42:51.461Z,17.70
2018-05-10T20:45:19.055Z,17.70
2018-05-10T20:47:46.654Z,17.60
2018-05-10T20:50:14.278Z,17.50
2018-05-10T20:52:41.878Z,17.50
2018-05-10T20:55:09.485Z,17.50
2018-05-10T20:57:37.103Z,17.30
2018-05-10T21:00:04.698Z,17.20
2018-05-10T21:02:32.312Z,17.10
2018-05-10T21:04:59.941Z,16.90
2018-05-10T21:07:27.542Z,16.80
2018-05-10T21:09:55.198Z,16.70
2018-05-10T21:12:45.239Z,16.60
2018-05-10T21:15:12.844Z,16.60
2018-05-10T21:17:41.220Z,16.50
2018-05-10T21:20:09.608Z,16.40
2018-05-10T21:22:37.209Z,16.40
2018-05-10T21:25:04.846Z,16.40
2018-05-10T21:27:32.484Z,16.40
2018-05-10T21:30:00.847Z,16.40
2018-05-10T21:32:28.442Z,16.40
2018-05-10T21:34:56.050Z,16.50
2018-05-10T21:37:23.646Z,16.50
2018-05-10T21:39:51.238Z,16.60
2018-05-10T21:42:18.861Z,16.60
2018-05-10T21:44:46.552Z,16.60
2018-05-10T21:47:14.892Z,16.80
2018-05-10T21:49:54.941Z,16.80
2018-05-10T21:52:23.306Z,16.80
2018-05-10T21:54:50.920Z,16.70
2018-05-10T21:57:18.544Z,16.70
2018-05-10T21:59:46.942Z,16.40
2018-05-10T22:02:14.563Z,16.40
2018-05-10T22:04:42.193Z,16.40
2018-05-10T22:07:09.816Z,16.30
2018-05-10T22:09:37.546Z,16.30
2018-05-10T22:12:05.170Z,16.20
2018-05-10T22:14:32.790Z,16.20
2018-05-10T22:17:01.240Z,16.10
2018-05-10T22:19:28.826Z,16.10
2018-05-10T22:21:56.461Z,16.10
2018-05-10T22:24:24.125Z,16.00
2018-05-10T22:26:51.766Z,15.90
2018-05-10T22:29:19.394Z,15.70
2018-05-10T22:31:47.032Z,15.50
2018-05-10T22:34:15.413Z,15.20
2018-05-10T22:36:43.810Z,15.00
2018-05-10T22:39:11.414Z,15.00
2018-05-10T22:41:39.062Z,14.80
2018-05-10T22:44:06.667Z,14.60
2018-05-10T22:46:35.043Z,14.50
2018-05-10T22:49:02.655Z,14.50
2018-05-10T22:51:31.026Z,14.30
2018-05-10T22:53:58.655Z,14.30
2018-05-10T22:56:27.027Z,14.20
2018-05-10T22:58:55.393Z,14.10
2018-05-10T23:01:23.023Z,14.10
2018-05-10T23:03:51.402Z,14.00
2018-05-10T23:06:19.010Z,14.00
2018-05-10T23:08:47.375Z,14.00
2018-05-10T23:11:15.760Z,13.90
2018-05-10T23:13:44.142Z,13.90
2018-05-10T23:16:12.518Z,13.80
2018-05-10T23:18:40.908Z,13.90
2018-05-10T23:21:09.276Z,13.80
2018-05-10T23:23:37.645Z,13.80
2018-05-10T23:26:06.066Z,13.80
2018-05-10T23:28:33.678Z,13.80
2018-05-10T23:31:01.279Z,13.80
2018-05-10T23:33:28.902Z,13.80
2018-05-10T23:35:56.511Z,13.80
2018-05-10T23:38:24.111Z,13.80
2018-05-10T23:40:51.727Z,13.70
2018-05-10T23:43:19.334Z,13.70
2018-05-10T23:45:46.939Z,13.70
2018-05-10T23:48:14.572Z,13.70
2018-05-10T23:50:42.236Z,13.60
2018-05-10T23:53:10.601Z,13.70
2018-05-10T23:55:38.229Z,13.70
2018-05-10T23:58:05.837Z,13.70
